Time;durP1;ratioP1;P1;durP2;ratioP2;P2;SDS_P1;SDS_P2;PMS_P1;PMS_P2;Temp;Humidity;BMP_temperature;BMP_pressure;BME280_temperature;BME280_humidity;BME280_pressure;Samples;Min_cycle;Max_cycle;Signal;HPM_P1;HPM_P2
2021/08/08 00:02:21;;;;;;;0.82;0.40;;;;;;;;;;5070839;28;20020;-56
2021/08/08 00:04:48;;;;;;;2.17;0.75;;;;;;;;;;5072943;28;20035;-58
2021/08/08 00:07:13;;;;;;;0.77;0.60;;;;;;;;;;5066126;28;20053;-56
2021/08/08 00:09:39;;;;;;;1.00;0.50;;;;;;;;;;5071826;28;20050;-58
2021/08/08 00:12:04;;;;;;;1.40;0.40;;;;;;;;;;5073431;28;20029;-58
2021/08/08 00:14:29;;;;;;;2.95;0.60;;;;;;;;;;5072963;28;20016;-56
2021/08/08 00:16:55;;;;;;;0.80;0.45;;;;;;;;;;5071278;28;20016;-58
2021/08/08 00:19:23;;;;;;;0.47;0.45;;;;;;;;;;5072457;28;20031;-58
2021/08/08 00:21:48;;;;;;;1.88;0.45;;;;;;;;;;5073713;28;20111;-55
2021/08/08 00:24:13;;;;;;;0.50;0.30;;;;;;;;;;5071941;28;20079;-57
2021/08/08 00:26:39;;;;;;;0.30;0.20;;;;;;;;;;5074472;28;20446;-57
2021/08/08 00:29:06;;;;;;;1.38;0.57;;;;;;;;;;5073519;28;20021;-59
2021/08/08 00:31:31;;;;;;;1.38;0.63;;;;;;;;;;5074144;28;20099;-57
2021/08/08 00:33:56;;;;;;;0.80;0.35;;;;;;;;;;5065541;28;20095;-56
2021/08/08 00:36:22;;;;;;;1.05;0.40;;;;;;;;;;5072746;28;20024;-58
2021/08/08 00:38:47;;;;;;;2.60;0.40;;;;;;;;;;5073854;28;20409;-55
2021/08/08 00:41:13;;;;;;;1.40;0.40;;;;;;;;;;5072397;28;20070;-58
2021/08/08 00:43:38;;;;;;;1.95;0.50;;;;;;;;;;5069625;28;20025;-54
2021/08/08 00:46:03;;;;;;;1.52;0.50;;;;;;;;;;5072290;28;20024;-54
2021/08/08 00:48:28;;;;;;;1.17;0.50;;;;;;;;;;5067559;28;20056;-58
2021/08/08 00:50:54;;;;;;;1.65;0.45;;;;;;;;;;5073388;28;20021;-57
2021/08/08 00:53:19;;;;;;;4.38;0.60;;;;;;;;;;5073106;28;20351;-57
2021/08/08 00:55:44;;;;;;;1.05;0.50;;;;;;;;;;5072331;28;20473;-58
2021/08/08 00:58:10;;;;;;;0.73;0.50;;;;;;;;;;5073764;28;20107;-58
2021/08/08 01:00:36;;;;;;;0.80;0.60;;;;;;;;;;5072064;28;20111;-59
2021/08/08 01:03:02;;;;;;;2.00;0.60;;;;;;;;;;5071497;28;20381;-57
2021/08/08 01:05:30;;;;;;;1.35;0.60;;;;;;;;;;5055071;28;20028;-58
2021/08/08 01:07:59;;;;;;;2.15;0.40;;;;;;;;;;5073300;28;20509;-58
2021/08/08 01:10:25;;;;;;;2.72;0.75;;;;;;;;;;5073364;28;20082;-58
2021/08/08 01:12:51;;;;;;;1.00;0.43;;;;;;;;;;5072668;28;20020;-57
2021/08/08 01:15:17;;;;;;;1.65;0.50;;;;;;;;;;5071495;28;20099;-58
2021/08/08 01:17:43;;;;;;;1.15;0.47;;;;;;;;;;5071710;28;20100;-59
2021/08/08 01:20:12;;;;;;;1.48;0.45;;;;;;;;;;5073394;28;20036;-58
2021/08/08 01:22:40;;;;;;;1.20;0.50;;;;;;;;;;5070776;28;20044;-58
2021/08/08 01:25:06;;;;;;;1.52;0.40;;;;;;;;;;5071595;28;20060;-57
2021/08/08 01:27:32;;;;;;;4.15;0.70;;;;;;;;;;5072914;28;20078;-56
2021/08/08 01:29:57;;;;;;;0.60;0.43;;;;;;;;;;5071659;28;20028;-57
2021/08/08 01:32:23;;;;;;;2.08;0.52;;;;;;;;;;5073240;28;20062;-57
2021/08/08 01:34:48;;;;;;;1.05;0.32;;;;;;;;;;5070940;28;20012;-58
2021/08/08 01:37:17;;;;;;;1.50;0.38;;;;;;;;;;5072882;28;20098;-58
2021/08/08 01:39:44;;;;;;;2.08;0.55;;;;;;;;;;5072592;28;20013;-58
2021/08/08 01:42:09;;;;;;;1.40;0.40;;;;;;;;;;5070777;28;20024;-59
2021/08/08 01:44:37;;;;;;;1.30;0.40;;;;;;;;;;5070114;28;20013;-58
2021/08/08 01:47:03;;;;;;;1.23;0.50;;;;;;;;;;5071924;28;20034;-56
2021/08/08 01:49:29;;;;;;;1.90;0.40;;;;;;;;;;5070928;28;20103;-58
2021/08/08 01:51:55;;;;;;;2.10;0.50;;;;;;;;;;5071680;28;20035;-58
2021/08/08 01:54:20;;;;;;;1.08;0.40;;;;;;;;;;5067676;28;20020;-58
2021/08/08 01:56:46;;;;;;;1.90;0.43;;;;;;;;;;5071857;28;20466;-59
2021/08/08 01:59:12;;;;;;;0.70;0.32;;;;;;;;;;5071984;28;20127;-57
2021/08/08 02:01:37;;;;;;;1.45;0.40;;;;;;;;;;5070625;28;20039;-58
2021/08/08 02:04:02;;;;;;;1.55;0.57;;;;;;;;;;5071213;28;20029;-57
2021/08/08 02:06:28;;;;;;;1.25;0.40;;;;;;;;;;5071953;28;20059;-57
2021/08/08 02:08:53;;;;;;;2.03;0.40;;;;;;;;;;5068951;28;20039;-59
2021/08/08 02:11:18;;;;;;;0.82;0.40;;;;;;;;;;5068020;28;20017;-57
2021/08/08 02:13:43;;;;;;;0.98;0.38;;;;;;;;;;5069419;28;20583;-58
2021/08/08 02:16:08;;;;;;;0.55;0.30;;;;;;;;;;5070906;28;20534;-58
2021/08/08 02:18:34;;;;;;;2.55;0.30;;;;;;;;;;5054705;28;20432;-58
2021/08/08 02:20:59;;;;;;;2.35;0.30;;;;;;;;;;5071535;28;20040;-58
2021/08/08 02:23:24;;;;;;;1.42;0.40;;;;;;;;;;5070705;28;20103;-58
2021/08/08 02:25:52;;;;;;;3.03;0.50;;;;;;;;;;5071858;28;20021;-57
2021/08/08 02:28:18;;;;;;;3.08;0.43;;;;;;;;;;5072735;28;20381;-58
2021/08/08 02:30:43;;;;;;;1.02;0.40;;;;;;;;;;5070833;28;20016;-59
2021/08/08 02:33:08;;;;;;;0.65;0.30;;;;;;;;;;5071121;28;20028;-58
2021/08/08 02:35:34;;;;;;;2.80;0.35;;;;;;;;;;5035767;28;20486;-58
2021/08/08 02:37:59;;;;;;;2.47;0.25;;;;;;;;;;5071542;28;20013;-59
2021/08/08 02:40:24;;;;;;;0.52;0.30;;;;;;;;;;5067859;28;20386;-58
2021/08/08 02:42:49;;;;;;;1.20;0.40;;;;;;;;;;5071495;28;20609;-59
2021/08/08 02:45:15;;;;;;;0.88;0.40;;;;;;;;;;5069527;28;20355;-58
2021/08/08 02:47:40;;;;;;;1.52;0.20;;;;;;;;;;5053924;28;20028;-59
2021/08/08 02:50:05;;;;;;;1.27;0.57;;;;;;;;;;5069575;28;20070;-57
2021/08/08 02:52:30;;;;;;;0.43;0.22;;;;;;;;;;5055614;28;20008;-58
2021/08/08 02:54:56;;;;;;;0.38;0.30;;;;;;;;;;5070016;28;20013;-58
2021/08/08 02:57:21;;;;;;;1.10;0.30;;;;;;;;;;5071590;28;20082;-57
2021/08/08 02:59:46;;;;;;;1.88;0.40;;;;;;;;;;5071403;28;20094;-58
2021/08/08 03:02:11;;;;;;;2.10;0.35;;;;;;;;;;5070341;28;20024;-58
2021/08/08 03:04:37;;;;;;;0.68;0.30;;;;;;;;;;5052396;28;20027;-58
2021/08/08 03:07:02;;;;;;;0.80;0.30;;;;;;;;;;5053150;28;20051;-58
2021/08/08 03:09:27;;;;;;;1.65;0.30;;;;;;;;;;5070627;28;20024;-58
2021/08/08 03:11:52;;;;;;;1.83;0.30;;;;;;;;;;5069822;28;20012;-59
2021/08/08 03:14:18;;;;;;;2.47;0.30;;;;;;;;;;5065297;28;20463;-57
2021/08/08 03:16:45;;;;;;;1.27;0.30;;;;;;;;;;5051882;28;20013;-58
2021/08/08 03:19:10;;;;;;;1.50;0.20;;;;;;;;;;5062715;28;20037;-57
2021/08/08 03:21:35;;;;;;;3.83;0.30;;;;;;;;;;5066577;28;20032;-58
2021/08/08 03:24:01;;;;;;;0.75;0.38;;;;;;;;;;5071043;28;20386;-56
2021/08/08 03:26:26;;;;;;;1.08;0.20;;;;;;;;;;5070144;28;20020;-58
2021/08/08 03:28:51;;;;;;;0.68;0.40;;;;;;;;;;5071008;28;20028;-58
2021/08/08 03:31:17;;;;;;;0.63;0.20;;;;;;;;;;5069466;28;20021;-59
2021/08/08 03:33:43;;;;;;;3.13;0.38;;;;;;;;;;5071065;28;20013;-58
2021/08/08 03:36:11;;;;;;;0.47;0.20;;;;;;;;;;5070929;28;20389;-58
2021/08/08 03:38:36;;;;;;;0.70;0.30;;;;;;;;;;5071271;28;20043;-58
2021/08/08 03:41:01;;;;;;;1.70;0.30;;;;;;;;;;5066892;28;20494;-57
2021/08/08 03:43:26;;;;;;;0.85;0.22;;;;;;;;;;5069297;28;20116;-57
2021/08/08 03:45:52;;;;;;;1.40;0.40;;;;;;;;;;5066429;28;20074;-58
2021/08/08 03:48:17;;;;;;;1.38;0.28;;;;;;;;;;5070328;28;20063;-57
2021/08/08 03:50:42;;;;;;;1.95;0.28;;;;;;;;;;5070678;28;20493;-58
2021/08/08 03:53:07;;;;;;;0.82;0.22;;;;;;;;;;5070774;28;20036;-57
2021/08/08 03:55:33;;;;;;;0.35;0.20;;;;;;;;;;5068082;28;20025;-58
2021/08/08 03:57:58;;;;;;;2.92;0.20;;;;;;;;;;5071174;28;20017;-58
2021/08/08 04:00:24;;;;;;;1.95;0.30;;;;;;;;;;5071027;28;20020;-59
2021/08/08 04:02:49;;;;;;;1.02;0.20;;;;;;;;;;5065458;28;20070;-58
2021/08/08 04:05:14;;;;;;;0.95;0.30;;;;;;;;;;5068646;28;20025;-58
2021/08/08 04:07:39;;;;;;;2.58;0.20;;;;;;;;;;5056667;28;20076;-58
2021/08/08 04:10:05;;;;;;;1.23;0.20;;;;;;;;;;5054322;28;20025;-58
2021/08/08 04:12:30;;;;;;;0.20;0.10;;;;;;;;;;5069857;28;20835;-58
2021/08/08 04:14:55;;;;;;;3.83;0.43;;;;;;;;;;5069175;28;20028;-56
2021/08/08 04:17:20;;;;;;;0.95;0.20;;;;;;;;;;5067271;28;20017;-56
2021/08/08 04:19:45;;;;;;;1.38;0.20;;;;;;;;;;5068296;28;20016;-58
2021/08/08 04:22:11;;;;;;;0.38;0.22;;;;;;;;;;5071297;28;20046;-57
2021/08/08 04:24:36;;;;;;;1.38;0.20;;;;;;;;;;5072662;28;20036;-58
2021/08/08 04:27:01;;;;;;;1.48;0.38;;;;;;;;;;5073578;28;20024;-58
2021/08/08 04:29:26;;;;;;;0.75;0.20;;;;;;;;;;5067540;28;20025;-57
2021/08/08 04:31:52;;;;;;;1.65;0.30;;;;;;;;;;5071340;28;20482;-56
2021/08/08 04:34:17;;;;;;;0.60;0.20;;;;;;;;;;5073160;28;20070;-58
2021/08/08 04:36:42;;;;;;;2.10;0.30;;;;;;;;;;5074296;28;20078;-59
2021/08/08 04:39:07;;;;;;;0.95;0.20;;;;;;;;;;5072998;28;20036;-56
2021/08/08 04:41:33;;;;;;;1.90;0.30;;;;;;;;;;5074331;28;20395;-57
2021/08/08 04:43:58;;;;;;;0.95;0.20;;;;;;;;;;5074903;28;20052;-59
2021/08/08 04:46:23;;;;;;;1.17;0.20;;;;;;;;;;5078804;28;20049;-59
2021/08/08 04:48:48;;;;;;;2.85;0.20;;;;;;;;;;5072994;28;20020;-59
2021/08/08 04:51:13;;;;;;;0.32;0.13;;;;;;;;;;5070002;28;20381;-58
2021/08/08 04:53:38;;;;;;;1.85;0.32;;;;;;;;;;5071896;28;20029;-59
2021/08/08 04:56:04;;;;;;;1.58;0.30;;;;;;;;;;5072695;28;20025;-59
2021/08/08 04:58:29;;;;;;;0.47;0.20;;;;;;;;;;5073893;28;20032;-59
2021/08/08 05:00:54;;;;;;;1.60;0.20;;;;;;;;;;5073800;28;20462;-59
2021/08/08 05:03:20;;;;;;;0.28;0.17;;;;;;;;;;5073486;28;20102;-58
2021/08/08 05:05:45;;;;;;;1.00;0.20;;;;;;;;;;5073309;28;20021;-59
2021/08/08 05:08:10;;;;;;;0.38;0.30;;;;;;;;;;5074242;28;20036;-59
2021/08/08 05:10:35;;;;;;;1.40;0.20;;;;;;;;;;5073984;28;20066;-58
2021/08/08 05:13:00;;;;;;;0.30;0.20;;;;;;;;;;5072388;28;20020;-59
2021/08/08 05:15:26;;;;;;;1.33;0.10;;;;;;;;;;5069773;28;20469;-57
2021/08/08 05:17:51;;;;;;;0.68;0.20;;;;;;;;;;5074129;28;20021;-59
2021/08/08 05:20:16;;;;;;;2.55;0.30;;;;;;;;;;5073393;28;20016;-60
2021/08/08 05:22:42;;;;;;;0.22;0.20;;;;;;;;;;5073416;28;20466;-60
2021/08/08 05:25:07;;;;;;;0.88;0.10;;;;;;;;;;5072963;28;20024;-59
2021/08/08 05:27:35;;;;;;;2.15;0.20;;;;;;;;;;5073463;28;20051;-59
2021/08/08 05:30:01;;;;;;;2.45;0.20;;;;;;;;;;5073055;28;20104;-59
2021/08/08 05:32:26;;;;;;;1.20;0.20;;;;;;;;;;5072905;28;20099;-58
2021/08/08 05:34:52;;;;;;;0.70;0.20;;;;;;;;;;5072493;28;20478;-59
2021/08/08 05:37:17;;;;;;;1.58;0.10;;;;;;;;;;5073449;28;20512;-59
2021/08/08 05:39:42;;;;;;;1.70;0.20;;;;;;;;;;5072764;28;20029;-59
2021/08/08 05:42:07;;;;;;;0.90;0.10;;;;;;;;;;5072541;28;20025;-60
2021/08/08 05:44:37;;;;;;;0.50;0.20;;;;;;;;;;5072827;28;20025;-59
2021/08/08 05:47:03;;;;;;;0.90;0.20;;;;;;;;;;5072513;28;20031;-58
2021/08/08 05:49:28;;;;;;;1.95;0.32;;;;;;;;;;5073050;28;20024;-59
2021/08/08 05:51:53;;;;;;;1.43;0.20;;;;;;;;;;5072970;28;20031;-60
2021/08/08 05:54:18;;;;;;;1.45;0.20;;;;;;;;;;5072691;28;20744;-57
2021/08/08 05:56:44;;;;;;;1.42;0.40;;;;;;;;;;5055170;28;20027;-58
2021/08/08 05:59:11;;;;;;;0.55;0.10;;;;;;;;;;5072643;28;20485;-58
2021/08/08 06:01:36;;;;;;;0.88;0.10;;;;;;;;;;5072511;28;20028;-59
2021/08/08 06:04:01;;;;;;;0.30;0.10;;;;;;;;;;5071772;28;20028;-59
2021/08/08 06:06:27;;;;;;;0.95;0.20;;;;;;;;;;5071674;28;20441;-60
2021/08/08 06:08:52;;;;;;;0.20;0.10;;;;;;;;;;5071191;28;20081;-59
2021/08/08 06:11:18;;;;;;;0.43;0.10;;;;;;;;;;5072192;28;20051;-59
2021/08/08 06:13:43;;;;;;;1.25;0.30;;;;;;;;;;5072944;28;20028;-60
2021/08/08 06:16:08;;;;;;;0.68;0.10;;;;;;;;;;5071609;28;20019;-58
2021/08/08 06:18:33;;;;;;;2.28;0.20;;;;;;;;;;5071802;28;20032;-59
2021/08/08 06:20:59;;;;;;;0.45;0.17;;;;;;;;;;5071106;28;20045;-57
2021/08/08 06:23:24;;;;;;;0.40;0.15;;;;;;;;;;5071406;28;20028;-59
2021/08/08 06:25:50;;;;;;;0.65;0.10;;;;;;;;;;5071901;28;20028;-59
2021/08/08 06:28:16;;;;;;;0.32;0.03;;;;;;;;;;5066797;28;20103;-59
2021/08/08 06:30:41;;;;;;;0.40;0.10;;;;;;;;;;5071469;28;20099;-58
2021/08/08 06:33:06;;;;;;;1.08;0.17;;;;;;;;;;5071729;28;20070;-58
2021/08/08 06:35:32;;;;;;;1.52;0.32;;;;;;;;;;5070874;28;20056;-58
2021/08/08 06:37:57;;;;;;;1.25;0.20;;;;;;;;;;5064665;28;20024;-59
2021/08/08 06:40:22;;;;;;;0.57;0.20;;;;;;;;;;5069660;28;20032;-58
2021/08/08 06:42:47;;;;;;;0.60;0.10;;;;;;;;;;5071543;28;20043;-57
2021/08/08 06:45:12;;;;;;;0.65;0.10;;;;;;;;;;5071299;28;20428;-58
2021/08/08 06:47:38;;;;;;;0.40;0.10;;;;;;;;;;5066428;28;20104;-58
2021/08/08 06:50:03;;;;;;;0.65;0.10;;;;;;;;;;5067899;28;20024;-57
2021/08/08 06:52:29;;;;;;;0.38;0.10;;;;;;;;;;5067277;28;20425;-57
2021/08/08 06:54:54;;;;;;;1.00;0.15;;;;;;;;;;5063355;28;20100;-58
2021/08/08 06:57:26;;;;;;;0.75;0.20;;;;;;;;;;5066907;28;20378;-58
2021/08/08 06:59:51;;;;;;;0.88;0.10;;;;;;;;;;5067952;28;20027;-57
2021/08/08 07:02:22;;;;;;;1.23;0.10;;;;;;;;;;5068823;28;20016;-59
2021/08/08 07:04:47;;;;;;;1.05;0.10;;;;;;;;;;5070708;28;20477;-57
2021/08/08 07:07:14;;;;;;;3.00;0.20;;;;;;;;;;5068033;28;20056;-59
2021/08/08 07:09:40;;;;;;;0.50;0.10;;;;;;;;;;5065687;28;20469;-58
2021/08/08 07:12:05;;;;;;;3.43;0.10;;;;;;;;;;5053362;28;20096;-58
2021/08/08 07:14:33;;;;;;;0.55;0.10;;;;;;;;;;5066246;28;20489;-59
2021/08/08 07:16:59;;;;;;;0.40;0.00;;;;;;;;;;5070777;28;20028;-59
2021/08/08 07:19:24;;;;;;;0.30;0.00;;;;;;;;;;5070495;28;20020;-59
2021/08/08 07:21:50;;;;;;;1.65;0.10;;;;;;;;;;5070944;28;20024;-59
2021/08/08 07:24:15;;;;;;;1.17;0.35;;;;;;;;;;5054148;28;20028;-59
2021/08/08 07:26:40;;;;;;;0.63;0.10;;;;;;;;;;5067713;28;20021;-58
2021/08/08 07:29:06;;;;;;;0.35;0.00;;;;;;;;;;5070877;28;20025;-59
2021/08/08 07:31:31;;;;;;;2.15;0.10;;;;;;;;;;5071481;28;20402;-59
2021/08/08 07:33:56;;;;;;;0.80;0.17;;;;;;;;;;5070880;28;20047;-58
2021/08/08 07:36:22;;;;;;;3.95;0.45;;;;;;;;;;5071252;28;20023;-58
2021/08/08 07:38:47;;;;;;;4.50;0.10;;;;;;;;;;5071633;28;20019;-58
2021/08/08 07:41:12;;;;;;;1.38;0.10;;;;;;;;;;5069690;28;20116;-58
2021/08/08 07:43:38;;;;;;;1.02;0.00;;;;;;;;;;5070327;28;20037;-59
2021/08/08 07:46:03;;;;;;;0.43;0.10;;;;;;;;;;5070671;28;20032;-57
2021/08/08 07:48:29;;;;;;;0.88;0.10;;;;;;;;;;5083840;28;20393;-59
2021/08/08 07:50:54;;;;;;;1.20;0.10;;;;;;;;;;5068321;28;20032;-58
2021/08/08 07:53:19;;;;;;;1.05;0.20;;;;;;;;;;5071567;28;20047;-59
2021/08/08 07:55:46;;;;;;;0.68;0.10;;;;;;;;;;5073670;28;20067;-58
2021/08/08 07:58:11;;;;;;;1.02;0.10;;;;;;;;;;5075128;28;20027;-58
2021/08/08 08:00:36;;;;;;;1.55;0.10;;;;;;;;;;5074682;28;20025;-57
2021/08/08 08:03:02;;;;;;;1.42;0.10;;;;;;;;;;5074801;28;20017;-58
2021/08/08 08:05:27;;;;;;;0.98;0.25;;;;;;;;;;5074737;28;20027;-60
2021/08/08 08:07:52;;;;;;;1.27;0.20;;;;;;;;;;5068621;28;20041;-60
2021/08/08 08:10:17;;;;;;;1.95;0.15;;;;;;;;;;5072931;28;20028;-60
2021/08/08 08:12:42;;;;;;;1.30;0.20;;;;;;;;;;5074007;28;20016;-60
2021/08/08 08:15:08;;;;;;;0.90;0.10;;;;;;;;;;5071792;28;20289;-57
2021/08/08 08:17:33;;;;;;;1.05;0.10;;;;;;;;;;5073558;28;20690;-60
2021/08/08 08:19:58;;;;;;;0.30;0.10;;;;;;;;;;5073978;28;20024;-59
2021/08/08 08:22:23;;;;;;;1.75;0.10;;;;;;;;;;5072623;28;20047;-58
2021/08/08 08:24:49;;;;;;;0.30;0.10;;;;;;;;;;5056273;28;20029;-59
2021/08/08 08:27:14;;;;;;;1.98;0.10;;;;;;;;;;5073966;28;20478;-58
2021/08/08 08:29:39;;;;;;;0.10;0.00;;;;;;;;;;5073877;28;20323;-59
2021/08/08 08:32:07;;;;;;;0.40;0.10;;;;;;;;;;5065535;28;20409;-59
2021/08/08 08:34:33;;;;;;;1.88;0.10;;;;;;;;;;5070835;28;20021;-58
2021/08/08 08:36:59;;;;;;;0.10;0.00;;;;;;;;;;5073044;28;20052;-59
2021/08/08 08:39:25;;;;;;;1.75;0.10;;;;;;;;;;5066628;28;20056;-58
2021/08/08 08:41:52;;;;;;;0.10;0.00;;;;;;;;;;5068715;28;20108;-59
2021/08/08 08:44:17;;;;;;;0.80;0.10;;;;;;;;;;5068654;28;20032;-59
2021/08/08 08:46:42;;;;;;;0.60;0.10;;;;;;;;;;5072445;28;20021;-59
2021/08/08 08:49:09;;;;;;;0.30;0.10;;;;;;;;;;5073839;28;20652;-58
2021/08/08 08:51:38;;;;;;;0.52;0.00;;;;;;;;;;5071784;28;20017;-59
2021/08/08 08:54:04;;;;;;;1.38;0.10;;;;;;;;;;5073548;28;20020;-59
2021/08/08 08:56:29;;;;;;;0.98;0.10;;;;;;;;;;5074255;28;20074;-59
2021/08/08 08:58:55;;;;;;;0.57;0.20;;;;;;;;;;5073702;28;20032;-58
2021/08/08 09:01:20;;;;;;;0.70;0.10;;;;;;;;;;5072504;28;20024;-59
2021/08/08 09:03:45;;;;;;;0.52;0.20;;;;;;;;;;5061675;28;20096;-59
2021/08/08 09:06:11;;;;;;;1.35;0.10;;;;;;;;;;5064825;28;20087;-59
2021/08/08 09:08:36;;;;;;;0.95;0.10;;;;;;;;;;5063650;28;20025;-59
2021/08/08 09:11:06;;;;;;;0.28;0.10;;;;;;;;;;5069926;28;20008;-59
2021/08/08 09:13:31;;;;;;;0.55;0.10;;;;;;;;;;5073027;28;20048;-59
2021/08/08 09:15:56;;;;;;;2.58;0.10;;;;;;;;;;5072852;28;20050;-59
2021/08/08 09:18:22;;;;;;;0.73;0.10;;;;;;;;;;5073685;28;20039;-59
2021/08/08 09:20:48;;;;;;;0.55;0.10;;;;;;;;;;5072734;28;20020;-58
2021/08/08 09:23:15;;;;;;;1.40;0.60;;;;;;;;;;5073786;28;20016;-59
2021/08/08 09:25:49;;;;;;;2.03;0.10;;;;;;;;;;5073151;28;20126;-59
2021/08/08 09:28:14;;;;;;;1.75;0.10;;;;;;;;;;5073465;28;20012;-60
2021/08/08 09:30:40;;;;;;;0.75;0.10;;;;;;;;;;5070758;28;20024;-60
2021/08/08 09:33:07;;;;;;;0.52;0.10;;;;;;;;;;5073806;28;20047;-60
2021/08/08 09:35:33;;;;;;;0.43;0.10;;;;;;;;;;5072801;28;20024;-60
2021/08/08 09:38:03;;;;;;;0.70;0.05;;;;;;;;;;5069737;28;20016;-59
2021/08/08 09:40:28;;;;;;;0.93;0.25;;;;;;;;;;5053581;28;20021;-59
2021/08/08 09:42:54;;;;;;;0.73;0.10;;;;;;;;;;5072109;28;20030;-59
2021/08/08 09:45:19;;;;;;;0.68;0.10;;;;;;;;;;5072932;28;20031;-59
2021/08/08 09:47:45;;;;;;;1.27;0.10;;;;;;;;;;5072549;28;20028;-59
2021/08/08 09:50:12;;;;;;;0.40;0.13;;;;;;;;;;5072231;28;20147;-59
2021/08/08 09:52:38;;;;;;;0.55;0.10;;;;;;;;;;5070632;28;20476;-59
2021/08/08 09:55:15;;;;;;;0.28;0.10;;;;;;;;;;5073074;28;20044;-60
2021/08/08 09:57:41;;;;;;;0.30;0.10;;;;;;;;;;5071814;28;20317;-60
2021/08/08 10:00:07;;;;;;;0.30;0.10;;;;;;;;;;5071963;28;20390;-60
2021/08/08 10:02:32;;;;;;;0.30;0.10;;;;;;;;;;5070717;28;20048;-60
2021/08/08 10:04:58;;;;;;;1.10;0.10;;;;;;;;;;5071343;28;20470;-60
2021/08/08 10:07:23;;;;;;;0.10;0.10;;;;;;;;;;5071960;28;20052;-60
2021/08/08 10:09:49;;;;;;;0.75;0.20;;;;;;;;;;5069910;28;20282;-60
2021/08/08 10:12:29;;;;;;;1.25;0.10;;;;;;;;;;5069586;28;20063;-60
2021/08/08 10:14:56;;;;;;;1.30;0.20;;;;;;;;;;5071133;28;20047;-60
2021/08/08 10:17:21;;;;;;;1.00;0.10;;;;;;;;;;5066522;28;20020;-57
2021/08/08 10:19:50;;;;;;;0.52;0.10;;;;;;;;;;5055581;28;20020;-59
2021/08/08 10:22:16;;;;;;;0.57;0.20;;;;;;;;;;5063823;28;20027;-58
2021/08/08 10:24:41;;;;;;;0.20;0.10;;;;;;;;;;5068476;28;20032;-60
2021/08/08 10:27:08;;;;;;;0.97;0.10;;;;;;;;;;5066211;28;20040;-61
2021/08/08 10:29:33;;;;;;;1.75;0.10;;;;;;;;;;5063463;28;20918;-60
2021/08/08 10:31:58;;;;;;;0.65;0.10;;;;;;;;;;5069265;28;20032;-60
2021/08/08 10:34:30;;;;;;;1.60;0.10;;;;;;;;;;5069009;28;20031;-60
2021/08/08 10:37:07;;;;;;;1.52;0.10;;;;;;;;;;5066321;28;20271;-60
2021/08/08 10:39:37;;;;;;;1.60;0.10;;;;;;;;;;5055091;28;20028;-59
2021/08/08 10:42:03;;;;;;;0.43;0.10;;;;;;;;;;5065867;28;20013;-60
2021/08/08 10:44:28;;;;;;;0.57;0.30;;;;;;;;;;5067062;28;20441;-60
2021/08/08 10:46:54;;;;;;;0.10;0.00;;;;;;;;;;5067691;28;21351;-60
2021/08/08 10:49:29;;;;;;;0.35;0.10;;;;;;;;;;5067837;28;20083;-59
2021/08/08 10:52:02;;;;;;;0.75;0.10;;;;;;;;;;5066946;28;20102;-59
2021/08/08 10:54:27;;;;;;;1.35;0.10;;;;;;;;;;5065883;28;20017;-60
2021/08/08 10:56:52;;;;;;;0.68;0.10;;;;;;;;;;5052441;28;20016;-60
2021/08/08 10:59:21;;;;;;;0.68;0.10;;;;;;;;;;5068493;28;20562;-60
2021/08/08 11:01:48;;;;;;;0.73;0.10;;;;;;;;;;5066090;28;20020;-60
2021/08/08 11:04:13;;;;;;;0.63;0.10;;;;;;;;;;5063527;28;20074;-59
2021/08/08 11:06:40;;;;;;;2.03;0.10;;;;;;;;;;5066896;28;20048;-60
2021/08/08 11:09:06;;;;;;;2.13;0.10;;;;;;;;;;5065578;28;20455;-60
2021/08/08 11:11:35;;;;;;;0.77;0.20;;;;;;;;;;5067374;28;20090;-60
2021/08/08 11:14:12;;;;;;;0.43;0.17;;;;;;;;;;5068687;28;20111;-60
2021/08/08 11:16:37;;;;;;;0.32;0.10;;;;;;;;;;5070858;28;20012;-60
2021/08/08 11:19:03;;;;;;;1.17;0.00;;;;;;;;;;5059885;28;20031;-60
2021/08/08 11:21:28;;;;;;;1.00;0.10;;;;;;;;;;5065564;28;20448;-59
2021/08/08 11:23:57;;;;;;;0.65;0.10;;;;;;;;;;5069060;28;20381;-60
2021/08/08 11:26:22;;;;;;;0.43;0.10;;;;;;;;;;5070626;28;20103;-60
2021/08/08 11:29:00;;;;;;;0.98;0.10;;;;;;;;;;5051611;28;20108;-60
2021/08/08 11:31:27;;;;;;;0.63;0.10;;;;;;;;;;5063759;28;20032;-59
2021/08/08 11:33:59;;;;;;;2.30;0.10;;;;;;;;;;5062650;28;20070;-60
2021/08/08 11:36:31;;;;;;;1.60;0.10;;;;;;;;;;5061037;28;20021;-60
2021/08/08 11:38:58;;;;;;;1.25;0.25;;;;;;;;;;5060541;28;20056;-59
2021/08/08 11:41:23;;;;;;;0.52;0.17;;;;;;;;;;5064351;28;20493;-59
2021/08/08 11:43:49;;;;;;;1.75;0.20;;;;;;;;;;5067621;28;20101;-60
2021/08/08 11:46:21;;;;;;;0.70;0.10;;;;;;;;;;5068248;28;20024;-60
2021/08/08 11:48:46;;;;;;;1.52;0.10;;;;;;;;;;5054459;28;21556;-60
2021/08/08 11:51:17;;;;;;;0.33;0.10;;;;;;;;;;5070779;28;20432;-60
2021/08/08 11:53:43;;;;;;;0.95;0.10;;;;;;;;;;5073503;28;20025;-60
2021/08/08 11:56:18;;;;;;;0.40;0.13;;;;;;;;;;5075024;28;20043;-60
2021/08/08 11:58:47;;;;;;;0.98;0.10;;;;;;;;;;5077676;28;20020;-60
2021/08/08 12:01:13;;;;;;;0.95;0.10;;;;;;;;;;5074079;28;20036;-60
2021/08/08 12:03:38;;;;;;;0.40;0.10;;;;;;;;;;5068039;28;20246;-60
2021/08/08 12:06:03;;;;;;;1.70;0.10;;;;;;;;;;5076138;28;20073;-60
2021/08/08 12:08:29;;;;;;;0.45;0.10;;;;;;;;;;5066713;28;20040;-60
2021/08/08 12:10:55;;;;;;;0.90;0.20;;;;;;;;;;5070719;28;20444;-60
2021/08/08 12:13:20;;;;;;;0.57;0.20;;;;;;;;;;5071398;28;20393;-59
2021/08/08 12:15:46;;;;;;;0.47;0.10;;;;;;;;;;5071602;28;20005;-60
2021/08/08 12:18:13;;;;;;;0.30;0.10;;;;;;;;;;5069725;28;20282;-59
2021/08/08 12:20:39;;;;;;;0.73;0.10;;;;;;;;;;5067933;28;20462;-59
2021/08/08 12:23:07;;;;;;;0.22;0.10;;;;;;;;;;5070515;28;20059;-60
2021/08/08 12:25:33;;;;;;;1.08;0.10;;;;;;;;;;5072863;28;20023;-60
2021/08/08 12:27:59;;;;;;;0.77;0.10;;;;;;;;;;5069238;28;20020;-60
2021/08/08 12:30:27;;;;;;;0.82;0.17;;;;;;;;;;5068496;28;20030;-60
2021/08/08 12:33:01;;;;;;;0.65;0.20;;;;;;;;;;5069252;28;20122;-60
2021/08/08 12:35:33;;;;;;;1.42;0.10;;;;;;;;;;5071532;28;20032;-60
2021/08/08 12:38:04;;;;;;;0.30;0.10;;;;;;;;;;5068067;28;20034;-60
2021/08/08 12:40:39;;;;;;;0.50;0.10;;;;;;;;;;5068547;28;20032;-60
2021/08/08 12:43:08;;;;;;;0.63;0.10;;;;;;;;;;5064613;28;20490;-60
2021/08/08 12:45:36;;;;;;;0.30;0.10;;;;;;;;;;5066432;28;20040;-60
2021/08/08 12:48:02;;;;;;;1.40;0.20;;;;;;;;;;5066812;28;20062;-60
2021/08/08 12:50:28;;;;;;;1.05;0.10;;;;;;;;;;5051208;28;20052;-60
2021/08/08 12:52:55;;;;;;;0.65;0.20;;;;;;;;;;5065591;28;20016;-59
2021/08/08 12:55:20;;;;;;;1.48;0.17;;;;;;;;;;5073255;28;20024;-57
2021/08/08 12:57:47;;;;;;;1.55;0.15;;;;;;;;;;5073182;28;20021;-59
2021/08/08 13:00:13;;;;;;;0.68;0.20;;;;;;;;;;5069781;28;20559;-60
2021/08/08 13:02:45;;;;;;;0.35;0.20;;;;;;;;;;5073927;28;20452;-59
2021/08/08 13:05:10;;;;;;;0.95;0.20;;;;;;;;;;5073157;28;20181;-59
2021/08/08 13:07:36;;;;;;;0.20;0.07;;;;;;;;;;5071727;28;20076;-60
2021/08/08 13:10:01;;;;;;;0.60;0.10;;;;;;;;;;5070595;28;20042;-60
2021/08/08 13:12:26;;;;;;;0.40;0.07;;;;;;;;;;5062135;28;20082;-60
2021/08/08 13:14:51;;;;;;;0.40;0.10;;;;;;;;;;5070450;28;20621;-60
2021/08/08 13:17:16;;;;;;;1.60;0.20;;;;;;;;;;5073461;28;20314;-59
2021/08/08 13:19:42;;;;;;;0.20;0.10;;;;;;;;;;5069173;28;20435;-59
2021/08/08 13:22:10;;;;;;;0.57;0.20;;;;;;;;;;5072323;28;20025;-59
2021/08/08 13:24:37;;;;;;;0.32;0.10;;;;;;;;;;5072721;28;20031;-60
2021/08/08 13:27:02;;;;;;;0.82;0.10;;;;;;;;;;5073031;28;20020;-60
2021/08/08 13:29:28;;;;;;;1.17;0.10;;;;;;;;;;5072133;28;20016;-58
2021/08/08 13:31:54;;;;;;;0.30;0.10;;;;;;;;;;5072719;28;20016;-59
2021/08/08 13:34:19;;;;;;;0.52;0.20;;;;;;;;;;5073280;28;20363;-60
2021/08/08 13:36:44;;;;;;;0.77;0.10;;;;;;;;;;5071993;28;20047;-59
2021/08/08 13:39:09;;;;;;;0.47;0.13;;;;;;;;;;5071398;28;20454;-59
2021/08/08 13:41:36;;;;;;;0.97;0.20;;;;;;;;;;5067920;28;20024;-59
2021/08/08 13:44:02;;;;;;;0.50;0.10;;;;;;;;;;5067510;28;20024;-60
2021/08/08 13:46:28;;;;;;;0.82;0.10;;;;;;;;;;5068438;28;20029;-58
2021/08/08 13:48:53;;;;;;;0.77;0.10;;;;;;;;;;5067727;28;20370;-58
2021/08/08 13:51:18;;;;;;;1.20;0.20;;;;;;;;;;5068326;28;20498;-58
2021/08/08 13:53:43;;;;;;;0.83;0.10;;;;;;;;;;5065011;28;20632;-58
2021/08/08 13:56:08;;;;;;;1.53;0.37;;;;;;;;;;5067571;28;20421;-59
2021/08/08 13:58:34;;;;;;;2.00;0.10;;;;;;;;;;5066302;28;20016;-58
2021/08/08 14:00:59;;;;;;;2.80;0.10;;;;;;;;;;5067148;28;20271;-58
2021/08/08 14:03:24;;;;;;;1.30;0.13;;;;;;;;;;5067096;28;20271;-58
2021/08/08 14:05:49;;;;;;;0.40;0.10;;;;;;;;;;5066590;28;20039;-59
2021/08/08 14:08:15;;;;;;;1.50;0.20;;;;;;;;;;5064282;28;20274;-59
2021/08/08 14:10:40;;;;;;;0.30;0.10;;;;;;;;;;5068632;28;20466;-59
2021/08/08 14:13:06;;;;;;;0.90;0.10;;;;;;;;;;5068668;28;20020;-60
2021/08/08 14:15:32;;;;;;;2.90;0.10;;;;;;;;;;5066376;28;20031;-59
2021/08/08 14:17:58;;;;;;;0.88;0.10;;;;;;;;;;5068303;28;20016;-59
2021/08/08 14:20:23;;;;;;;0.40;0.20;;;;;;;;;;5066067;28;20028;-60
2021/08/08 14:22:48;;;;;;;1.38;0.13;;;;;;;;;;5068310;28;20498;-60
2021/08/08 14:25:13;;;;;;;0.77;0.10;;;;;;;;;;5065295;28;20020;-60
2021/08/08 14:27:39;;;;;;;1.08;0.20;;;;;;;;;;5068338;28;20310;-60
2021/08/08 14:30:04;;;;;;;1.23;0.20;;;;;;;;;;5067399;28;20536;-58
2021/08/08 14:32:29;;;;;;;0.57;0.20;;;;;;;;;;5067407;28;20028;-58
2021/08/08 14:34:55;;;;;;;0.60;0.20;;;;;;;;;;5066261;28;20024;-58
2021/08/08 14:37:21;;;;;;;1.40;0.20;;;;;;;;;;5064359;28;21046;-59